createdAt,value
2022-10-25T00:02:34.305Z,12.30
2022-10-25T00:05:07.461Z,12.30
2022-10-25T00:07:37.982Z,12.30
2022-10-25T00:12:54.014Z,12.30
2022-10-25T00:15:24.497Z,12.30
2022-10-25T00:20:39.664Z,12.30
2022-10-25T00:23:12.664Z,12.30
2022-10-25T00:28:30.852Z,12.40
2022-10-25T00:31:24.873Z,12.40
2022-10-25T00:33:56.077Z,12.30
2022-10-25T00:39:15.303Z,12.30
2022-10-25T00:41:54.106Z,12.30
2022-10-25T00:44:42.147Z,12.30
2022-10-25T00:47:33.652Z,12.30
2022-10-25T00:50:35.638Z,12.40
2022-10-25T00:53:14.702Z,12.30
2022-10-25T00:55:48.797Z,12.30
2022-10-25T00:58:30.198Z,12.30
2022-10-25T01:01:02.039Z,12.30
2022-10-25T01:03:36.787Z,12.30
2022-10-25T01:06:14.485Z,12.20
2022-10-25T01:08:47.232Z,12.30
2022-10-25T01:11:19.087Z,12.30
2022-10-25T01:14:08.553Z,12.30
2022-10-25T01:17:13.179Z,12.30
2022-10-25T01:20:04.461Z,12.30
2022-10-25T01:23:22.827Z,12.30
2022-10-25T01:26:43.221Z,12.20
2022-10-25T01:29:52.353Z,12.20
2022-10-25T01:32:59.395Z,12.20
2022-10-25T01:35:39.078Z,12.20
2022-10-25T01:38:37.524Z,12.20
2022-10-25T01:41:31.641Z,12.20
2022-10-25T01:44:30.487Z,12.20
2022-10-25T01:47:17.071Z,12.20
2022-10-25T01:52:57.239Z,12.20
2022-10-25T01:55:37.206Z,12.20
2022-10-25T01:58:40.950Z,12.30
2022-10-25T02:01:56.611Z,12.30
2022-10-25T02:05:09.731Z,12.30
2022-10-25T02:08:03.340Z,12.30
2022-10-25T02:10:53.987Z,12.40
2022-10-25T02:13:42.123Z,12.40
2022-10-25T02:16:26.404Z,12.40
2022-10-25T02:19:06.257Z,12.40
2022-10-25T02:21:38.431Z,12.40
2022-10-25T02:26:58.283Z,12.50
2022-10-25T02:29:32.145Z,12.50
2022-10-25T02:32:05.087Z,12.60
2022-10-25T02:34:42.862Z,12.60
2022-10-25T02:37:13.914Z,12.60
2022-10-25T02:39:43.810Z,12.60
2022-10-25T02:42:15.374Z,12.70
2022-10-25T02:47:28.906Z,12.70
2022-10-25T02:50:00.368Z,12.70
2022-10-25T02:52:29.891Z,12.80
2022-10-25T02:57:45.894Z,12.80
2022-10-25T03:02:59.648Z,12.90
2022-10-25T03:05:29.725Z,12.90
2022-10-25T03:07:58.571Z,12.90
2022-10-25T03:10:29.443Z,12.90
2022-10-25T03:13:04.237Z,12.90
2022-10-25T03:15:33.209Z,12.90
2022-10-25T03:18:05.341Z,13.00
2022-10-25T03:20:38.517Z,12.90
2022-10-25T03:26:12.537Z,12.90
2022-10-25T03:28:42.906Z,12.80
2022-10-25T03:31:23.034Z,12.90
2022-10-25T03:33:54.986Z,12.80
2022-10-25T03:36:25.968Z,12.80
2022-10-25T03:38:57.616Z,12.90
2022-10-25T03:41:29.346Z,12.90
2022-10-25T03:49:29.358Z,12.80
2022-10-25T03:52:01.342Z,12.80
2022-10-25T03:54:38.155Z,12.80
2022-10-25T03:59:50.592Z,12.80
2022-10-25T04:02:29.334Z,12.80
2022-10-25T04:04:59.662Z,12.80
2022-10-25T04:07:30.775Z,12.80
2022-10-25T04:12:45.557Z,12.80
2022-10-25T04:15:22.981Z,12.80
2022-10-25T04:17:56.126Z,12.80
2022-10-25T04:20:27.675Z,12.80
2022-10-25T04:23:01.211Z,12.80
2022-10-25T04:25:30.284Z,12.80
2022-10-25T04:28:03.737Z,12.80
2022-10-25T04:30:38.053Z,12.90
2022-10-25T04:33:12.097Z,13.00
2022-10-25T04:35:43.100Z,13.10
2022-10-25T04:38:13.627Z,13.10
2022-10-25T04:40:44.087Z,13.20
2022-10-25T04:43:14.918Z,13.30
2022-10-25T04:48:27.999Z,13.30
2022-10-25T04:50:58.250Z,13.40
2022-10-25T04:56:20.437Z,13.30
2022-10-25T04:58:51.412Z,13.30
2022-10-25T05:01:23.189Z,13.40
2022-10-25T05:06:36.033Z,13.40
2022-10-25T05:09:07.599Z,13.30
2022-10-25T05:11:39.101Z,13.40
2022-10-25T05:14:07.826Z,13.50
2022-10-25T05:16:38.507Z,13.40
2022-10-25T05:19:11.367Z,13.50
2022-10-25T05:21:43.354Z,13.50
2022-10-25T05:27:01.337Z,13.50
2022-10-25T05:29:40.917Z,13.50
2022-10-25T05:32:11.781Z,13.50
2022-10-25T05:34:44.113Z,13.50
2022-10-25T05:37:12.435Z,13.40
2022-10-25T05:39:41.424Z,13.50
2022-10-25T05:44:55.346Z,13.40
2022-10-25T05:47:25.928Z,13.50
2022-10-25T05:49:56.597Z,13.30
2022-10-25T05:52:26.918Z,13.30
2022-10-25T05:54:58.231Z,13.30
2022-10-25T05:57:26.408Z,13.30
2022-10-25T06:00:03.731Z,13.30
2022-10-25T06:02:52.587Z,13.30
2022-10-25T06:08:04.431Z,13.30
2022-10-25T06:10:35.954Z,13.30
2022-10-25T06:13:07.103Z,13.30
2022-10-25T06:15:41.335Z,13.30
2022-10-25T06:18:09.316Z,13.20
2022-10-25T06:20:45.954Z,13.20
2022-10-25T06:23:17.901Z,13.20
2022-10-25T06:28:33.788Z,13.30
2022-10-25T06:31:11.427Z,13.30
2022-10-25T06:33:46.457Z,13.40
2022-10-25T06:36:18.048Z,13.50
2022-10-25T06:38:48.131Z,13.60
2022-10-25T06:41:19.654Z,13.70
2022-10-25T06:43:50.854Z,13.80
2022-10-25T06:46:57.950Z,14.00
2022-10-25T06:49:37.463Z,14.10
2022-10-25T06:52:09.449Z,14.40
2022-10-25T06:54:39.190Z,14.50
2022-10-25T06:59:54.755Z,14.80
2022-10-25T07:02:26.740Z,15.10
2022-10-25T07:04:59.154Z,15.30
2022-10-25T07:07:28.949Z,15.50
2022-10-25T07:09:58.073Z,15.60
2022-10-25T07:12:30.779Z,15.70
2022-10-25T07:15:02.990Z,15.90
2022-10-25T07:20:21.001Z,16.30
2022-10-25T07:23:00.631Z,16.50
2022-10-25T07:25:32.127Z,16.70
2022-10-25T07:28:05.697Z,16.80
2022-10-25T07:30:35.918Z,16.90
2022-10-25T07:38:45.643Z,17.20
2022-10-25T07:41:16.897Z,17.20
2022-10-25T07:43:48.881Z,17.40
2022-10-25T07:49:04.611Z,17.50
2022-10-25T07:54:20.506Z,17.60
2022-10-25T07:59:36.660Z,17.80
2022-10-25T08:02:07.854Z,17.70
2022-10-25T08:04:40.192Z,17.60
2022-10-25T08:07:09.327Z,17.60
2022-10-25T08:09:38.998Z,17.70
2022-10-25T08:12:09.202Z,17.70
2022-10-25T08:14:42.423Z,17.70
2022-10-25T08:17:16.314Z,17.90
2022-10-25T08:19:48.751Z,18.00
2022-10-25T08:22:29.703Z,18.10
2022-10-25T08:25:08.873Z,18.20
2022-10-25T08:27:43.872Z,18.20
2022-10-25T08:30:14.030Z,18.30
2022-10-25T08:35:29.764Z,18.30
2022-10-25T08:38:04.304Z,18.40
2022-10-25T08:41:00.834Z,18.60
2022-10-25T08:44:02.546Z,18.60
2022-10-25T08:46:48.247Z,18.80
2022-10-25T08:50:04.744Z,19.00
2022-10-25T08:52:45.913Z,19.00
2022-10-25T08:55:44.612Z,19.10
2022-10-25T08:58:32.690Z,19.30
2022-10-25T09:01:18.871Z,19.30
2022-10-25T09:06:53.460Z,19.60
2022-10-25T09:09:50.126Z,19.90
2022-10-25T09:12:31.426Z,20.20
2022-10-25T09:15:19.304Z,20.10
2022-10-25T09:17:53.807Z,20.00
2022-10-25T09:20:30.844Z,20.20
2022-10-25T09:23:34.267Z,20.30
2022-10-25T09:26:21.653Z,20.10
2022-10-25T09:29:20.940Z,20.30
2022-10-25T09:31:57.594Z,20.50
2022-10-25T09:34:37.408Z,20.60
2022-10-25T09:40:44.915Z,20.50
2022-10-25T09:43:30.174Z,20.70
2022-10-25T09:46:31.163Z,20.50
2022-10-25T09:49:07.549Z,20.40
2022-10-25T09:52:04.900Z,20.30
2022-10-25T09:54:48.333Z,20.10
2022-10-25T09:57:19.463Z,20.10
2022-10-25T09:59:57.279Z,20.30
2022-10-25T10:05:21.073Z,20.60
2022-10-25T10:08:12.128Z,20.60
2022-10-25T10:10:45.572Z,20.80
2022-10-25T10:14:04.948Z,20.90
2022-10-25T10:16:47.505Z,21.20
2022-10-25T10:19:28.156Z,21.30
2022-10-25T10:22:02.998Z,21.60
2022-10-25T10:24:47.015Z,21.30
2022-10-25T10:27:36.776Z,20.80
2022-10-25T10:30:09.785Z,20.90
2022-10-25T10:32:43.704Z,20.90
2022-10-25T10:35:37.222Z,21.30
2022-10-25T10:38:26.457Z,21.30
2022-10-25T10:41:34.451Z,21.40
2022-10-25T10:44:15.464Z,22.30
2022-10-25T10:46:49.869Z,22.40
2022-10-25T10:49:20.977Z,22.90
2022-10-25T10:52:00.046Z,22.90
2022-10-25T10:54:52.861Z,22.90
2022-10-25T11:00:28.332Z,24.20
2022-10-25T11:03:00.521Z,24.10
2022-10-25T11:05:39.840Z,24.90
2022-10-25T11:08:21.566Z,24.70
2022-10-25T11:10:53.891Z,25.50
2022-10-25T11:13:30.933Z,25.80
2022-10-25T11:16:41.514Z,25.90
2022-10-25T11:19:44.264Z,26.40
2022-10-25T11:22:37.352Z,27.30
2022-10-25T11:28:42.053Z,28.20
2022-10-25T11:31:42.574Z,27.50
2022-10-25T11:34:55.150Z,27.40
2022-10-25T11:38:05.354Z,27.50
2022-10-25T11:40:42.775Z,29.00
2022-10-25T11:43:47.260Z,28.80
2022-10-25T11:46:47.042Z,29.20
2022-10-25T11:49:57.106Z,28.60
2022-10-25T11:52:45.839Z,28.60
2022-10-25T11:55:42.695Z,27.90
2022-10-25T11:58:51.864Z,28.30
2022-10-25T12:01:36.132Z,28.10
2022-10-25T12:04:46.458Z,26.90
2022-10-25T12:07:23.345Z,26.60
2022-10-25T12:10:12.109Z,26.70
2022-10-25T12:12:52.797Z,28.20
2022-10-25T12:15:44.519Z,28.50
2022-10-25T12:18:26.045Z,29.60
2022-10-25T12:20:57.571Z,29.80
2022-10-25T12:26:28.877Z,29.90
2022-10-25T12:29:03.104Z,32.20
2022-10-25T12:31:44.415Z,33.20
2022-10-25T12:34:38.843Z,34.60
2022-10-25T12:37:24.485Z,35.90
2022-10-25T12:39:53.760Z,36.00
2022-10-25T12:43:09.777Z,35.00
2022-10-25T12:46:32.831Z,35.00
2022-10-25T12:49:44.949Z,36.70
2022-10-25T12:52:43.925Z,36.00
2022-10-25T12:59:11.692Z,31.40
2022-10-25T13:02:07.339Z,30.20
2022-10-25T13:05:00.432Z,28.00
2022-10-25T13:07:37.157Z,26.30
2022-10-25T13:10:19.020Z,26.50
2022-10-25T13:13:18.484Z,26.00
2022-10-25T13:15:56.593Z,26.00
2022-10-25T13:18:39.741Z,27.30
2022-10-25T13:21:43.814Z,26.20
2022-10-25T13:24:50.049Z,25.70
2022-10-25T13:27:24.795Z,25.30
2022-10-25T13:30:25.934Z,24.20
2022-10-25T13:36:15.374Z,22.50
2022-10-25T13:38:47.472Z,22.10
2022-10-25T13:41:19.905Z,21.70
2022-10-25T13:44:00.924Z,21.40
2022-10-25T13:46:42.773Z,21.10
2022-10-25T13:49:37.366Z,20.90
2022-10-25T13:52:31.104Z,20.60
2022-10-25T13:55:05.272Z,20.50
2022-10-25T13:57:59.879Z,20.60
2022-10-25T14:00:40.366Z,20.50
2022-10-25T14:03:16.512Z,20.40
2022-10-25T14:06:03.178Z,20.40
2022-10-25T14:09:01.071Z,20.20
2022-10-25T14:11:51.500Z,20.20
2022-10-25T14:15:10.899Z,20.30
2022-10-25T14:17:46.424Z,20.20
2022-10-25T14:20:37.148Z,20.10
2022-10-25T14:23:32.913Z,20.00
2022-10-25T14:26:11.811Z,20.20
2022-10-25T14:28:44.972Z,20.30
2022-10-25T14:31:18.562Z,20.30
2022-10-25T14:33:56.537Z,20.10
2022-10-25T14:36:39.685Z,20.20
2022-10-25T14:39:34.537Z,20.20
2022-10-25T14:42:07.664Z,21.10
2022-10-25T14:44:50.765Z,23.00
2022-10-25T14:47:33.614Z,22.90
2022-10-25T14:50:04.489Z,22.50
2022-10-25T14:52:36.710Z,22.50
2022-10-25T14:55:10.071Z,22.00
2022-10-25T14:57:42.084Z,21.00
2022-10-25T15:00:22.821Z,20.40
2022-10-25T15:03:04.275Z,20.00
2022-10-25T15:05:34.951Z,19.70
2022-10-25T15:08:05.234Z,19.50
2022-10-25T15:10:45.598Z,19.30
2022-10-25T15:13:27.417Z,19.20
2022-10-25T15:15:56.930Z,19.00
2022-10-25T15:18:42.764Z,18.90
2022-10-25T15:24:27.282Z,18.60
2022-10-25T15:27:04.929Z,18.50
2022-10-25T15:29:49.465Z,18.40
2022-10-25T15:32:20.799Z,18.30
2022-10-25T15:34:53.781Z,18.20
2022-10-25T15:40:18.492Z,17.90
2022-10-25T15:42:49.260Z,17.80
2022-10-25T15:45:20.442Z,17.70
2022-10-25T15:47:50.924Z,17.50
2022-10-25T15:50:19.951Z,17.40
2022-10-25T15:52:50.930Z,17.30
2022-10-25T15:55:25.589Z,17.20
2022-10-25T15:57:55.501Z,17.00
2022-10-25T16:00:28.136Z,16.90
2022-10-25T16:03:07.010Z,16.80
2022-10-25T16:05:39.738Z,16.70
2022-10-25T16:08:08.818Z,16.70
2022-10-25T16:10:40.035Z,16.50
2022-10-25T16:13:15.823Z,16.50
2022-10-25T16:18:18.907Z,16.30
2022-10-25T16:20:46.558Z,16.30
2022-10-25T16:23:18.538Z,16.30
2022-10-25T16:25:46.491Z,16.30
2022-10-25T16:28:16.592Z,16.20
2022-10-25T16:30:49.482Z,16.10
2022-10-25T16:33:20.375Z,16.00
2022-10-25T16:35:51.083Z,16.00
2022-10-25T16:38:20.567Z,16.00
2022-10-25T16:40:52.938Z,15.90
2022-10-25T16:43:35.856Z,15.90
2022-10-25T16:46:04.628Z,15.80
2022-10-25T16:48:38.030Z,15.70
2022-10-25T16:51:06.422Z,15.60
2022-10-25T16:53:37.637Z,15.60
2022-10-25T16:56:08.414Z,15.60
2022-10-25T16:58:39.100Z,15.60
2022-10-25T17:01:40.131Z,15.50
2022-10-25T17:04:13.790Z,15.40
2022-10-25T17:06:44.914Z,15.50
2022-10-25T17:09:12.416Z,15.40
2022-10-25T17:11:41.414Z,15.30
2022-10-25T17:14:10.652Z,15.20
2022-10-25T17:16:47.071Z,15.10
2022-10-25T17:19:14.985Z,15.10
2022-10-25T17:21:45.664Z,15.00
2022-10-25T17:24:16.384Z,15.00
2022-10-25T17:26:45.320Z,15.00
2022-10-25T17:29:19.552Z,14.90
2022-10-25T17:31:48.625Z,14.80
2022-10-25T17:34:18.983Z,14.60
2022-10-25T17:36:46.813Z,14.50
2022-10-25T17:39:26.694Z,14.40
2022-10-25T17:41:55.874Z,14.30
2022-10-25T17:44:24.982Z,14.20
2022-10-25T17:46:53.142Z,14.10
2022-10-25T17:49:22.431Z,14.00
2022-10-25T17:51:51.072Z,14.00
2022-10-25T17:54:21.452Z,13.90
2022-10-25T17:56:52.065Z,13.80
2022-10-25T17:59:22.878Z,13.80
2022-10-25T18:01:53.006Z,13.80
2022-10-25T18:04:21.814Z,13.70
2022-10-25T18:06:51.681Z,13.60
2022-10-25T18:09:22.753Z,13.50
2022-10-25T18:11:53.219Z,13.40
2022-10-25T18:14:22.150Z,13.40
2022-10-25T18:16:51.834Z,13.20
2022-10-25T18:19:20.679Z,13.20
2022-10-25T18:21:53.245Z,13.20
2022-10-25T18:24:21.924Z,13.10
2022-10-25T18:26:52.017Z,13.10
2022-10-25T18:29:24.695Z,13.00
2022-10-25T18:31:55.407Z,12.90
2022-10-25T18:34:29.948Z,12.70
2022-10-25T18:37:00.490Z,12.60
2022-10-25T18:39:31.456Z,12.60
2022-10-25T18:42:01.080Z,12.60
2022-10-25T18:44:33.723Z,12.60
2022-10-25T18:47:07.407Z,12.60
2022-10-25T18:49:40.163Z,12.50
2022-10-25T18:52:11.681Z,12.50
2022-10-25T18:54:42.377Z,12.40
2022-10-25T18:57:18.230Z,12.30
2022-10-25T18:59:51.892Z,12.30
2022-10-25T19:02:21.864Z,12.30
2022-10-25T19:04:52.759Z,12.30
2022-10-25T19:07:21.957Z,12.30
2022-10-25T19:10:00.308Z,12.10
2022-10-25T19:12:30.201Z,12.10
2022-10-25T19:15:04.160Z,12.10
2022-10-25T19:17:33.887Z,12.10
2022-10-25T19:20:04.248Z,12.10
2022-10-25T19:22:34.527Z,12.10
2022-10-25T19:25:03.115Z,12.10
2022-10-25T19:27:35.668Z,12.10
2022-10-25T19:30:06.298Z,12.10
2022-10-25T19:32:34.890Z,12.00
2022-10-25T19:35:04.786Z,12.00
2022-10-25T19:37:36.307Z,11.90
2022-10-25T19:40:08.805Z,11.90
2022-10-25T19:42:39.828Z,11.80
2022-10-25T19:45:11.355Z,11.80
2022-10-25T19:47:42.793Z,11.70
2022-10-25T19:50:13.018Z,11.60
2022-10-25T19:52:41.793Z,11.60
2022-10-25T19:55:10.896Z,11.50
2022-10-25T19:57:40.274Z,11.60
2022-10-25T20:00:14.038Z,11.60
2022-10-25T20:02:43.835Z,11.50
2022-10-25T20:05:12.735Z,11.50
2022-10-25T20:07:44.752Z,11.50
2022-10-25T20:10:14.466Z,11.50
2022-10-25T20:12:44.716Z,11.40
2022-10-25T20:15:19.031Z,11.40
2022-10-25T20:17:49.208Z,11.40
2022-10-25T20:20:21.514Z,11.50
2022-10-25T20:22:50.502Z,11.50
2022-10-25T20:25:18.849Z,11.50
2022-10-25T20:27:51.230Z,11.40
2022-10-25T20:30:21.042Z,11.40
2022-10-25T20:32:48.980Z,11.30
2022-10-25T20:35:21.265Z,11.20
2022-10-25T20:37:51.688Z,11.10
2022-10-25T20:40:21.182Z,11.10
2022-10-25T20:42:49.662Z,11.10
2022-10-25T20:45:19.800Z,11.10
2022-10-25T20:47:50.928Z,11.20
2022-10-25T20:50:19.815Z,11.20
2022-10-25T20:53:09.167Z,11.20
2022-10-25T20:55:36.420Z,11.00
2022-10-25T20:58:03.872Z,10.90
2022-10-25T21:00:32.559Z,10.90
2022-10-25T21:03:03.722Z,10.80
2022-10-25T21:05:31.471Z,10.80
2022-10-25T21:08:00.078Z,10.80
2022-10-25T21:10:30.012Z,10.80
2022-10-25T21:12:59.042Z,10.70
2022-10-25T21:15:27.474Z,10.70
2022-10-25T21:17:54.846Z,10.60
2022-10-25T21:20:23.732Z,10.50
2022-10-25T21:22:53.979Z,10.60
2022-10-25T21:25:22.974Z,10.50
2022-10-25T21:27:53.888Z,10.50
2022-10-25T21:30:23.131Z,10.50
2022-10-25T21:32:51.739Z,10.50
2022-10-25T21:35:20.759Z,10.40
2022-10-25T21:37:50.579Z,10.40
2022-10-25T21:40:19.398Z,10.50
2022-10-25T21:42:46.829Z,10.50
2022-10-25T21:45:15.507Z,10.50
2022-10-25T21:47:43.379Z,10.50
2022-10-25T21:50:10.868Z,10.50
2022-10-25T21:52:40.544Z,10.40
2022-10-25T21:55:08.892Z,10.30
2022-10-25T21:57:37.588Z,10.30
2022-10-25T22:00:08.260Z,10.10
2022-10-25T22:02:57.953Z,10.20
2022-10-25T22:05:25.451Z,10.10
2022-10-25T22:07:53.993Z,10.10
2022-10-25T22:10:21.332Z,10.10
2022-10-25T22:12:50.739Z,10.10
2022-10-25T22:15:25.219Z,10.10
2022-10-25T22:17:52.651Z,10.10
2022-10-25T22:20:20.513Z,10.00
2022-10-25T22:22:49.360Z,10.00
2022-10-25T22:25:17.409Z,9.90
2022-10-25T22:27:45.402Z,9.90
2022-10-25T22:30:13.898Z,9.90
2022-10-25T22:32:41.396Z,9.90
2022-10-25T22:35:10.430Z,9.90
2022-10-25T22:37:39.418Z,9.90
2022-10-25T22:40:08.260Z,9.90
2022-10-25T22:42:35.654Z,9.90
2022-10-25T22:45:04.595Z,9.90
2022-10-25T22:47:32.417Z,9.90
2022-10-25T22:50:01.225Z,9.80
2022-10-25T22:52:29.670Z,9.90
2022-10-25T22:54:58.421Z,9.80
2022-10-25T22:57:25.867Z,9.70
2022-10-25T22:59:55.718Z,9.60
2022-10-25T23:02:24.432Z,9.70
2022-10-25T23:04:53.126Z,9.80
2022-10-25T23:07:21.373Z,9.80
2022-10-25T23:09:49.849Z,9.80
2022-10-25T23:12:18.446Z,9.80
2022-10-25T23:14:46.364Z,9.70
2022-10-25T23:17:15.273Z,9.80
2022-10-25T23:19:45.109Z,9.70
2022-10-25T23:22:12.785Z,9.70
2022-10-25T23:24:40.397Z,9.60
2022-10-25T23:27:09.386Z,9.50
2022-10-25T23:29:36.732Z,9.50
2022-10-25T23:32:07.722Z,9.40
2022-10-25T23:34:36.374Z,9.40
2022-10-25T23:37:03.745Z,9.30
2022-10-25T23:39:32.221Z,9.30
2022-10-25T23:42:00.388Z,9.40
2022-10-25T23:44:30.263Z,9.40
2022-10-25T23:46:58.936Z,9.40
2022-10-25T23:49:26.624Z,9.40
2022-10-25T23:51:55.598Z,9.40
2022-10-25T23:54:23.451Z,9.40
2022-10-25T23:56:52.174Z,9.40
2022-10-25T23:59:20.413Z,9.40
